Latest Weather Observations for Norah Head

IDN60901

Issued at 9:31 pm EST Saturday 18 April 2015 (issued every 10 minutes, with the page automatically refreshed every 10 minutes)

About weather observations | Map of Sydney area stations | Latest observations for Sydney area | Other Formats
Station Details ID: 061366 Name: NORAH HEAD AWS Lat: -33.28 Lon: 151.58 Height: 18.8 m
Data from the previous 72 hours. | See also: Recent months at Norah Head
Date/Time
EST
Tmp

°C
App
Tmp
°C
Dew
Point
°C
Rel
Hum
%
Delta-T

°C
Wind Press
QNH
hPa
Press
MSL
hPa
Rain
since
9 am
mm
Dir
 
Spd
km/h
Gust
km/h
Spd
kts
Gust
kts
18/09:00pm 22.5 20.7 18.7 79 2.4 N 26 30 14 16 1014.6 1014.5 0.0
18/08:30pm 22.6 21.6 18.8 79 2.4 N 22 24 12 13 1014.6 1014.5 0.0
18/08:00pm 22.1 22.3 19.3 84 1.8 NNW 17 22 9 12 1014.4 1014.3 0.0
18/07:30pm 21.8 22.9 19.7 88 1.3 N 13 17 7 9 1014.3 1014.2 0.0
18/07:00pm 21.8 22.9 20.4 92 0.9 NNE 15 19 8 10 1014.3 1014.2 0.0
18/06:30pm 21.9 21.3 20.4 91 1.0 NNE 24 28 13 15 1014.1 1014.0 0.0
18/06:00pm 21.9 20.4 20.2 90 1.1 NNE 28 32 15 17 1013.8 1013.7 0.0
18/05:30pm 22.1 20.0 19.8 87 1.5 NNE 30 37 16 20 1013.8 1013.7 0.0
18/05:00pm 22.1 20.4 19.8 87 1.5 NNE 28 32 15 17 1013.9 1013.8 0.0
18/04:30pm 22.0 20.5 19.4 85 1.7 NNE 26 32 14 17 1014.2 1014.1 0.0
18/04:00pm 22.3 21.4 19.8 86 1.6 NNE 24 30 13 16 1014.4 1014.3 0.0
18/03:30pm 22.3 20.7 19.3 83 1.9 NNE 26 30 14 16 1014.5 1014.4 0.0
18/03:00pm 22.4 20.3 19.0 81 2.2 NNE 28 32 15 17 1015.0 1014.9 0.0
18/02:30pm 22.3 20.1 19.5 84 1.8 NNE 30 33 16 18 1015.2 1015.1 0.0
18/02:00pm 22.7 21.0 19.7 83 1.9 NNE 28 32 15 17 1015.1 1015.0 0.0
18/01:30pm 23.6 21.2 18.3 72 3.3 N 28 32 15 17 1015.2 1015.1 0.0
18/01:00pm 23.9 21.3 17.9 69 3.8 N 28 33 15 18 1015.4 1015.3 0.0
18/12:30pm 23.9 22.3 18.3 71 3.5 NNE 24 28 13 15 1016.0 1015.9 0.0
18/12:00pm 23.4 21.7 18.1 72 3.3 N 24 26 13 14 1016.6 1016.5 0.0
18/11:30am 22.9 22.3 18.9 78 2.5 NNE 20 24 11 13 1017.2 1017.1 0.0
18/11:00am 22.3 20.7 19.3 83 1.9 NNE 26 32 14 17 1017.5 1017.4 0.0
18/10:30am 23.1 19.8 18.0 73 3.2 N 32 35 17 19 1017.8 1017.7 0.0
18/10:00am 22.5 19.1 17.8 75 2.9 N 32 35 17 19 1018.1 1018.0 0.0
18/09:30am 21.6 20.7 19.0 85 1.6 N 22 28 12 15 1018.6 1018.5 0.0
18/09:00am 22.1 24.5 20.9 93 0.8 NNE 9 13 5 7 1019.1 1019.0 0.0
18/08:30am 21.3 23.6 20.6 96 0.5 NNE 9 11 5 6 1019.1 1019.0 0.0
18/08:00am 20.8 22.3 20.6 99 0.1 NNE 13 15 7 8 1019.0 1018.9 0.0
18/07:30am 20.3 21.3 20.3 100 0.0 NNE 15 17 8 9 1018.7 1018.6 0.0
18/07:00am 20.2 20.8 20.2 100 0.0 N 17 19 9 10 1018.3 1018.2 0.0
18/06:30am 20.1 21.4 20.1 100 0.0 NNE 13 15 7 8 1018.1 1018.0 0.0
18/06:00am 20.1 21.0 20.1 100 0.0 N 15 17 8 9 1018.2 1018.1 0.0
18/05:30am 20.1 20.6 20.1 100 0.0 N 17 19 9 10 1018.0 1017.9 0.0
18/05:00am 20.4 21.8 20.4 100 0.0 NNE 13 15 7 8 1017.7 1017.6 0.0
18/04:30am 20.4 21.8 20.4 100 0.0 N 13 13 7 7 1017.8 1017.7 0.0
18/04:00am 20.6 21.8 20.6 100 0.0 N 15 17 8 9 1017.7 1017.6 0.0
18/03:30am 20.9 22.9 20.7 99 0.1 N 11 17 6 9 1017.7 1017.6 0.0
18/03:00am 20.3 22.9 20.0 98 0.2 NNE 6 7 3 4 1017.9 1017.8 0.0
18/02:30am 20.3 22.8 19.8 97 0.3 NE 6 7 3 4 1018.2 1018.1 0.0
18/02:00am 20.5 24.2 20.0 97 0.3 CALM 0 0 0 0 1018.6 1018.5 0.0
18/01:30am 20.4 24.0 19.7 96 0.4 CALM 0 0 0 0 1019.0 1018.9 0.0
18/01:00am 20.4 24.0 19.7 96 0.4 CALM 0 0 0 0 1019.5 1019.4 0.0
18/12:30am 20.5 23.7 19.8 96 0.4 NW 2 6 1 3 1019.5 1019.4 0.0
18/12:00am 21.0 23.5 20.3 96 0.4 NW 7 9 4 5 1020.1 1020.0 0.0
 
Date/Time
EST
Tmp

°C
App
Tmp
°C
Dew
Point
°C
Rel
Hum
%
Delta-T

°C
Wind Press
QNH
hPa
Press
MSL
hPa
Rain
since
9 am
mm
Dir
 
Spd
km/h
Gust
km/h
Spd
kts
Gust
kts
17/11:30pm 21.1 23.9 20.4 96 0.5 WNW 6 7 3 4 1020.3 1020.2 0.0
17/11:00pm 20.9 24.0 20.2 96 0.4 WNW 4 6 2 3 1020.4 1020.3 0.0
17/10:30pm 21.1 25.0 20.4 96 0.5 CALM 0 4 0 2 1020.6 1020.5 0.0
17/10:00pm 21.1 25.0 20.3 95 0.5 CALM 0 0 0 0 1020.8 1020.7 0.0
17/09:30pm 21.2 24.0 20.4 95 0.5 SSW 6 11 3 6 1020.9 1020.8 0.0
17/09:00pm 21.3 24.8 20.3 94 0.6 SSW 2 4 1 2 1021.3 1021.2 0.0
17/08:30pm 21.3 25.1 20.1 93 0.8 CALM 0 0 0 0 1021.4 1021.3 0.0
17/08:00pm 21.4 23.9 20.2 93 0.8 SE 7 9 4 5 1021.3 1021.2 0.0
17/07:30pm 21.4 23.1 20.2 93 0.8 ESE 11 13 6 7 1021.2 1021.1 0.0
17/07:00pm 21.4 23.1 20.2 93 0.8 SE 11 15 6 8 1021.4 1021.3 0.0
17/06:30pm 21.5 22.8 20.1 92 0.9 SE 13 17 7 9 1021.3 1021.2 0.0
17/06:00pm 21.5 22.8 20.1 92 0.9 SSE 13 15 7 8 1021.1 1021.0 0.0
17/05:30pm 21.6 23.3 20.1 91 1.0 SSE 11 13 6 7 1020.7 1020.6 0.0
17/05:00pm 21.8 24.0 20.3 91 1.0 S 9 9 5 5 1020.8 1020.7 0.0
17/04:30pm 22.1 24.2 20.2 89 1.2 SSE 9 9 5 5 1020.9 1020.8 0.0
17/04:00pm 22.5 25.1 20.4 88 1.4 SSE 7 9 4 5 1020.8 1020.7 0.0
17/03:30pm 22.6 24.8 20.3 87 1.5 S 9 11 5 6 1020.9 1020.8 0.0
17/03:00pm 22.7 25.2 20.2 86 1.6 S 7 9 4 5 1021.0 1020.9 0.0
17/02:30pm 23.0 25.4 20.1 84 1.9 S 7 9 4 5 1021.2 1021.1 0.0
17/02:00pm 23.1 25.1 19.9 82 2.1 SSE 9 11 5 6 1021.4 1021.3 0.0
17/01:30pm 23.1 24.7 19.9 82 2.1 SSE 11 13 6 7 1021.7 1021.6 0.0
17/01:00pm 23.4 25.6 20.5 84 1.9 S 9 11 5 6 1022.1 1022.0 0.0
17/12:30pm 23.3 25.8 20.2 83 2.0 SSW 7 9 4 5 1022.9 1022.8 0.0
17/12:00pm 23.3 25.3 19.9 81 2.2 SSW 9 9 5 5 1023.4 1023.3 0.0
17/11:30am 23.4 26.1 20.3 83 2.0 S 6 7 3 4 1023.9 1023.8 0.0
17/11:00am 23.1 26.1 20.1 83 1.9 SSE 4 6 2 3 1024.1 1024.0 0.0
17/10:30am 22.8 25.8 20.0 84 1.8 SSE 4 6 2 3 1024.2 1024.1 0.0
17/10:00am 23.1 25.5 19.7 81 2.2 SE 6 6 3 3 1024.4 1024.3 0.0
17/09:30am 23.2 25.5 20.7 86 1.6 SSE 9 11 5 6 1024.4 1024.3 0.0
17/09:00am 22.5 25.5 20.8 90 1.1 S 6 7 3 4 1024.8 1024.7 0.0
17/08:30am 22.1 24.1 20.0 88 1.3 SSE 9 11 5 6 1024.7 1024.6 0.0
17/08:00am 22.2 24.6 20.8 92 0.9 SE 9 11 5 6 1024.2 1024.1 0.0
17/07:30am 21.1 22.7 19.9 93 0.8 SE 11 15 6 8 1024.1 1024.0 0.0
17/07:00am 21.0 22.2 19.8 93 0.8 SSE 13 17 7 9 1023.8 1023.7 0.0
17/06:30am 20.8 20.7 19.6 93 0.8 SSE 19 20 10 11 1023.4 1023.3 0.0
17/06:00am 20.8 20.7 19.6 93 0.8 SSE 19 20 10 11 1023.2 1023.1 0.0
17/05:30am 20.7 20.5 19.4 92 0.8 SSE 19 22 10 12 1023.0 1022.9 0.0
17/05:00am 20.8 20.7 19.5 92 0.8 SSE 19 20 10 11 1022.9 1022.8 0.0
17/04:30am 20.9 20.7 19.4 91 1.0 S 19 22 10 12 1022.8 1022.7 0.0
17/04:00am 20.8 20.4 19.3 91 0.9 S 20 26 11 14 1022.8 1022.7 0.0
17/03:30am 20.9 21.2 19.6 92 0.8 S 17 22 9 12 1022.8 1022.7 0.0
17/03:00am 20.8 20.7 19.6 93 0.8 S 19 24 10 13 1022.3 1022.2 0.0
17/02:30am 20.8 19.8 19.6 93 0.8 SSE 24 30 13 16 1022.4 1022.3 0.0
17/02:00am 20.8 19.8 19.6 93 0.8 SSE 24 30 13 16 1022.6 1022.5 0.0
17/01:30am 20.9 19.2 19.7 93 0.8 S 28 32 15 17 1022.7 1022.6 0.0
17/01:00am 20.9 18.4 19.7 93 0.8 SSE 32 35 17 19 1022.6 1022.5 0.0
17/12:30am 20.8 18.6 19.5 92 0.8 S 30 33 16 18 1022.8 1022.7 0.0
17/12:00am 20.9 18.8 19.7 93 0.8 S 30 35 16 19 1022.9 1022.8 0.0
 
Date/Time
EST
Tmp

°C
App
Tmp
°C
Dew
Point
°C
Rel
Hum
%
Delta-T

°C
Wind Press
QNH
hPa
Press
MSL
hPa
Rain
since
9 am
mm
Dir
 
Spd
km/h
Gust
km/h
Spd
kts
Gust
kts
16/11:30pm 21.1 20.3 20.1 94 0.6 S 24 32 13 17 1022.8 1022.7 0.0
16/11:00pm 21.1 20.4 20.3 95 0.5 S 24 32 13 17 1023.2 1023.1 0.0
16/10:30pm 21.1 20.0 20.3 95 0.5 S 26 33 14 18 1022.7 1022.6 0.0
16/10:00pm 21.1 19.7 20.4 96 0.4 S 28 35 15 19 1022.7 1022.6 0.0
16/09:30pm 21.4 20.1 20.7 96 0.5 S 28 35 15 19 1022.6 1022.5 0.0
16/09:00pm 21.5 21.8 20.5 94 0.6 SSW 19 28 10 15 1022.6 1022.5 0.0
16/08:30pm 21.8 19.7 20.6 93 0.8 SSE 32 37 17 20 1022.1 1022.0 0.0
16/08:00pm 22.3 20.4 20.2 88 1.3 S 30 39 16 21 1021.8 1021.7 0.0
16/07:57pm 22.3 21.2 20.2 88 1.4 S 26 39 14 21 1021.5 1021.4 0.0
16/07:30pm 22.2 23.6 20.3 89 1.2 NNW 13 17 7 9 1021.0 1020.9 0.0
16/07:00pm 22.3 22.7 20.6 90 1.1 NNE 19 24 10 13 1020.2 1020.1 0.0
16/06:30pm 21.8 23.6 20.4 92 0.9 NNW 11 15 6 8 1020.1 1020.0 0.0
16/06:00pm 21.9 23.3 20.4 91 1.0 N 13 17 7 9 1019.9 1019.8 0.0
16/05:30pm 22.1 22.9 20.6 91 1.0 NNE 17 20 9 11 1019.7 1019.6 0.0
16/05:00pm 22.2 23.3 20.5 90 1.1 NNE 15 19 8 10 1019.5 1019.4 0.0
16/04:30pm 22.7 23.7 20.2 86 1.6 NE 15 17 8 9 1019.6 1019.5 0.0
16/04:00pm 22.9 23.2 20.4 86 1.6 NE 19 22 10 12 1019.5 1019.4 0.0
16/03:30pm 23.1 22.7 20.2 84 1.9 NE 22 26 12 14 1019.5 1019.4 0.0
16/03:00pm 24.1 23.9 19.8 77 2.8 NE 20 24 11 13 1019.8 1019.7 0.0
16/02:30pm 25.8 27.1 20.8 74 3.3 ENE 15 19 8 10 1020.0 1019.9 0.0
16/02:00pm 26.5 28.5 21.5 74 3.3 ENE 13 17 7 9 1020.1 1020.0 0.0
16/01:30pm 25.7 27.6 20.5 73 3.4 E 11 15 6 8 1020.1 1020.0 0.0
16/01:00pm 26.4 29.2 20.9 72 3.6 ENE 7 9 4 5 1020.3 1020.2 0.0
16/12:30pm 26.0 29.1 21.0 74 3.3 NE 6 9 3 5 1020.7 1020.6 0.0
16/12:00pm 24.4 26.4 19.9 76 2.9 NNE 9 13 5 7 1021.0 1020.9 0.0
16/11:30am 24.2 24.9 19.7 76 2.9 NNE 15 17 8 9 1021.5 1021.4 0.0
16/11:00am 25.2 27.4 21.1 78 2.7 NE 11 15 6 8 1021.9 1021.8 0.0
16/10:30am 23.8 24.8 19.5 77 2.8 NNE 13 15 7 8 1022.3 1022.2 0.0
16/10:00am 23.5 23.7 19.4 78 2.6 NNE 17 20 9 11 1022.4 1022.3 0.0
16/09:30am 23.2 24.4 18.3 74 3.1 NNE 9 13 5 7 1022.7 1022.6 0.0
16/09:00am 22.8 24.2 17.9 74 3.0 NNW 7 9 4 5 1023.1 1023.0 2.0
16/08:30am 22.0 23.3 17.6 76 2.7 NNW 7 9 4 5 1022.9 1022.8 2.0
16/08:00am 21.4 22.5 18.0 81 2.1 NNW 9 13 5 7 1022.7 1022.6 2.0
16/07:30am 20.3 21.8 18.1 87 1.4 NNW 7 9 4 5 1022.5 1022.4 2.0
16/07:00am 19.6 20.1 18.4 93 0.7 NNE 13 17 7 9 1022.2 1022.1 2.0
16/06:30am 18.6 19.4 17.3 92 0.8 N 9 13 5 7 1022.1 1022.0 2.0
16/06:00am 18.8 20.0 16.9 89 1.1 N 6 7 3 4 1022.0 1021.9 2.0
16/05:30am 19.1 21.1 16.0 82 1.8 CALM 0 4 0 2 1021.9 1021.8 2.0
16/05:00am 18.4 19.4 15.3 82 1.8 WSW 4 6 2 3 1021.8 1021.7 2.0
16/04:30am 19.1 20.4 17.6 91 0.9 NW 7 9 4 5 1021.7 1021.6 2.0
16/04:00am 19.3 21.2 17.6 90 1.0 S 4 6 2 3 1021.5 1021.4 2.0
16/03:30am 19.5 21.3 17.3 87 1.3 NNW 4 6 2 3 1021.4 1021.3 2.0
16/03:00am 19.9 21.4 16.7 82 1.9 SE 4 6 2 3 1021.4 1021.3 2.0
16/02:30am 19.4 20.7 16.2 82 1.9 S 4 6 2 3 1021.7 1021.6 2.0
16/02:00am 18.8 20.1 16.2 85 1.5 ESE 4 6 2 3 1021.7 1021.6 2.0
16/01:30am 19.0 19.9 16.0 83 1.8 SSW 6 7 3 4 1022.0 1021.9 2.0
16/01:00am 19.5 20.4 16.0 80 2.1 SSW 6 9 3 5 1022.4 1022.3 2.0
16/12:30am 19.7 20.4 16.2 80 2.1 SE 7 13 4 7 1022.4 1022.3 2.0
16/12:00am 19.8 19.7 16.1 79 2.2 WNW 11 22 6 12 1021.7 1021.6 2.0
 
Date/Time
EST
Tmp

°C
App
Tmp
°C
Dew
Point
°C
Rel
Hum
%
Delta-T

°C
Wind Press
QNH
hPa
Press
MSL
hPa
Rain
since
9 am
mm
Dir
 
Spd
km/h
Gust
km/h
Spd
kts
Gust
kts
15/11:30pm 19.8 17.4 15.4 76 2.6 NW 22 44 12 24 1021.9 1021.8 2.0
15/11:05pm 19.4 17.9 16.4 83 1.8 NW 19 43 10 23 1021.5 1021.4 1.8
15/11:00pm 19.0 18.7 16.4 85 1.6 WNW 13 22 7 12 1022.9 1022.8 1.8
15/10:30pm 18.9 18.8 17.0 89 1.1 WNW 13 28 7 15 1023.7 1023.6 1.8
15/10:00pm 19.0 19.7 17.1 89 1.1 WNW 9 17 5 9 1024.4 1024.3 1.2

Latest Capital City Observations: Canberra | Sydney | Melbourne | Brisbane | Adelaide | Perth | Hobart | Darwin

Other Formats:

Comma delimited format used in spreadsheet applications
http://www.bom.gov.au/fwo/IDN60901/IDN60901.95770.axf

JavaScript Object Notation format (JSON) in row-major order
http://www.bom.gov.au/fwo/IDN60901/IDN60901.95770.json